La Crescent, Minnesota
Current Conditions -  °F | °C
As of 9:53 AM on Thursday 30 Oct 2014 (Local Time) from KLSE Reporting Station
Overcast Overcast  
Wind Chill: 38°   Ceiling: 7500
Heat Index: 42°   Visibility: 10mi
Dew Point: 36°   Wind: 6mph
Humidity: 79%   Direction: 160°SSE
Pressure: 30.08"   Gusts: NA
Location:  43.83°N, 91.3°W
Report Text: KLSE 301453Z 16005KT 10SM OVC075 06/02 A3008 RMK AO2 SLP195 T00560022 53000
Loading
Personal Weather Stations






























Interactive Weather Map
Tropical Storm Tracking
New forecast layout! Learn more

10-Day Weather Forecast

Advertisements
Track Severe Weather on mobile